createdAt,value
2023-06-13T00:03:55.377Z,100710.65
2023-06-13T00:08:59.310Z,100704.36
2023-06-13T00:14:03.336Z,100707.18
2023-06-13T00:19:07.063Z,100707.39
2023-06-13T00:24:10.435Z,100704.48
2023-06-13T00:29:13.998Z,100696.84
2023-06-13T00:34:17.732Z,100688.89
2023-06-13T00:39:21.338Z,100692.55
2023-06-13T00:44:24.832Z,100687.73
2023-06-13T00:49:29.541Z,100682.55
2023-06-13T00:54:39.098Z,100680.00
2023-06-13T00:59:59.712Z,100678.50
2023-06-13T01:05:04.518Z,100668.97
2023-06-13T01:10:11.210Z,100665.48
2023-06-13T01:15:18.580Z,100656.84
2023-06-13T01:20:22.739Z,100657.15
2023-06-13T01:26:07.081Z,100655.90
2023-06-13T01:31:16.873Z,100650.86
2023-06-13T01:36:21.335Z,100647.55
2023-06-13T01:41:25.160Z,100649.03
2023-06-13T01:46:31.243Z,100646.23
2023-06-13T01:51:41.196Z,100643.65
2023-06-13T01:56:49.322Z,100645.63
2023-06-13T02:01:56.181Z,100643.61
2023-06-13T02:06:59.925Z,100646.98
2023-06-13T02:12:03.981Z,100642.05
2023-06-13T02:17:08.651Z,100638.55
2023-06-13T02:22:13.634Z,100633.44
2023-06-13T02:27:16.855Z,100633.16
2023-06-13T02:32:20.242Z,100634.32
2023-06-13T02:37:23.461Z,100636.13
2023-06-13T02:42:28.638Z,100637.40
2023-06-13T02:47:32.060Z,100636.36
2023-06-13T02:52:35.617Z,100635.11
2023-06-13T02:57:39.043Z,100630.72
2023-06-13T03:02:45.086Z,100628.77
2023-06-13T03:07:49.273Z,100630.91
2023-06-13T03:12:58.713Z,100630.61
2023-06-13T03:18:02.119Z,100628.55
2023-06-13T03:23:06.449Z,100625.56
2023-06-13T03:28:09.989Z,100624.70
2023-06-13T03:33:13.967Z,100628.63
2023-06-13T03:38:20.772Z,100626.27
2023-06-13T03:43:24.285Z,100625.97
2023-06-13T03:48:27.897Z,100629.12
2023-06-13T03:53:31.401Z,100627.99
2023-06-13T03:58:36.394Z,100623.99
2023-06-13T04:03:44.092Z,100619.30
2023-06-13T04:08:47.612Z,100624.93
2023-06-13T04:13:50.778Z,100623.20
2023-06-13T04:18:56.085Z,100623.29
2023-06-13T04:23:59.842Z,100617.64
2023-06-13T04:29:05.419Z,100617.98
2023-06-13T04:34:09.616Z,100618.02
2023-06-13T04:39:13.603Z,100621.88
2023-06-13T04:44:16.999Z,100618.52
2023-06-13T04:49:20.450Z,100615.25
2023-06-13T04:54:24.851Z,100615.13
2023-06-13T04:59:38.845Z,100617.41
2023-06-13T05:04:43.442Z,100616.14
2023-06-13T05:09:50.326Z,100621.15
2023-06-13T05:14:53.738Z,100620.27
2023-06-13T05:20:00.210Z,100619.40
2023-06-13T05:25:04.018Z,100622.28
2023-06-13T05:30:13.514Z,100619.78
2023-06-13T05:35:17.232Z,100614.73
2023-06-13T05:40:20.684Z,100620.31
2023-06-13T05:45:24.340Z,100622.81
2023-06-13T05:50:27.672Z,100623.03
2023-06-13T05:55:30.840Z,100621.60
2023-06-13T06:00:37.461Z,100624.13
2023-06-13T06:05:41.373Z,100624.38
2023-06-13T06:10:44.853Z,100619.64
2023-06-13T06:15:48.762Z,100621.18
2023-06-13T06:20:52.126Z,100621.27
2023-06-13T06:25:55.431Z,100616.89
2023-06-13T06:30:59.365Z,100618.91
2023-06-13T06:36:03.707Z,100622.05
2023-06-13T06:41:08.014Z,100616.73
2023-06-13T06:46:12.050Z,100616.20
2023-06-13T06:51:15.488Z,100617.52
2023-06-13T06:56:18.783Z,100620.73
2023-06-13T07:01:22.129Z,100618.90
2023-06-13T07:06:25.718Z,100617.86
2023-06-13T07:11:29.234Z,100613.15
2023-06-13T07:16:32.586Z,100617.35
2023-06-13T07:21:37.286Z,100620.00
2023-06-13T07:26:40.504Z,100623.23
2023-06-13T07:31:46.042Z,100615.90
2023-06-13T07:36:49.617Z,100604.98
2023-06-13T07:41:52.910Z,100596.65
2023-06-13T07:46:56.464Z,100597.50
2023-06-13T07:52:00.092Z,100598.36
2023-06-13T07:57:10.412Z,100604.00
2023-06-13T08:02:25.274Z,100601.88
2023-06-13T08:07:30.581Z,100599.59
2023-06-13T08:12:34.096Z,100588.21
2023-06-13T08:17:38.501Z,100590.84
2023-06-13T08:22:42.491Z,100590.74
2023-06-13T08:27:45.862Z,100584.81
2023-06-13T08:32:53.781Z,100595.67
2023-06-13T08:37:59.125Z,100590.92
2023-06-13T08:43:03.127Z,100583.77
2023-06-13T08:48:07.051Z,100586.52
2023-06-13T08:53:11.971Z,100588.18
2023-06-13T08:58:20.580Z,100590.53
2023-06-13T09:03:26.560Z,100593.73
2023-06-13T09:08:32.118Z,100591.77
2023-06-13T09:13:37.388Z,100597.11
2023-06-13T09:18:44.491Z,100597.55
2023-06-13T09:23:49.558Z,100599.23
2023-06-13T09:28:53.214Z,100603.75
2023-06-13T09:34:01.772Z,100601.09
2023-06-13T09:39:05.990Z,100596.07
2023-06-13T09:44:09.313Z,100600.70
2023-06-13T09:49:12.514Z,100600.33
2023-06-13T09:54:16.161Z,100602.39
2023-06-13T09:59:19.508Z,100599.07
2023-06-13T10:04:22.876Z,100599.84
2023-06-13T10:09:26.214Z,100590.66
2023-06-13T10:14:35.159Z,100591.95
2023-06-13T10:19:40.736Z,100589.23
2023-06-13T10:24:45.474Z,100592.27
2023-06-13T10:30:00.846Z,100588.19
2023-06-13T10:35:23.478Z,100583.77
2023-06-13T10:40:41.953Z,100583.02
2023-06-13T10:45:46.586Z,100584.94
2023-06-13T10:50:49.871Z,100573.14
2023-06-13T10:56:03.024Z,100561.35
2023-06-13T11:01:39.974Z,100558.25
2023-06-13T11:06:47.382Z,100557.15
2023-06-13T11:11:52.129Z,100552.52
2023-06-13T11:16:56.355Z,100553.42
2023-06-13T11:21:59.709Z,100556.81
2023-06-13T11:27:08.042Z,100558.95
2023-06-13T11:32:13.179Z,100563.88
2023-06-13T11:37:51.962Z,100560.40
2023-06-13T11:42:55.708Z,100561.58
2023-06-13T11:48:02.585Z,100568.52
2023-06-13T11:53:08.190Z,100565.10
2023-06-13T11:58:12.126Z,100558.98
2023-06-13T12:03:16.822Z,100555.65
2023-06-13T12:08:21.018Z,100553.77
2023-06-13T12:13:24.285Z,100552.48
2023-06-13T12:18:31.340Z,100553.02
2023-06-13T12:23:35.274Z,100555.44
2023-06-13T12:28:38.524Z,100555.33
2023-06-13T12:33:43.231Z,100544.98
2023-06-13T12:38:46.656Z,100539.08
2023-06-13T12:43:49.946Z,100539.14
2023-06-13T12:49:05.609Z,100539.34
2023-06-13T12:54:22.217Z,100539.19
2023-06-13T12:59:33.243Z,100537.14
2023-06-13T13:04:38.129Z,100539.61
2023-06-13T13:09:44.698Z,100533.86
2023-06-13T13:14:48.771Z,100532.02
2023-06-13T13:19:54.611Z,100535.98
2023-06-13T13:24:58.362Z,100537.45
2023-06-13T13:30:01.735Z,100532.38
2023-06-13T13:35:05.638Z,100529.51
2023-06-13T13:40:09.760Z,100522.64
2023-06-13T13:45:13.618Z,100517.89
2023-06-13T13:50:17.466Z,100515.73
2023-06-13T13:55:21.380Z,100516.96
2023-06-13T14:00:24.729Z,100514.88
2023-06-13T14:05:28.014Z,100514.80
2023-06-13T14:10:31.262Z,100518.98
2023-06-13T14:15:34.457Z,100513.32
2023-06-13T14:20:37.902Z,100516.47
2023-06-13T14:25:41.045Z,100518.36
2023-06-13T14:30:45.245Z,100508.39
2023-06-13T14:35:48.577Z,100509.09
2023-06-13T14:40:51.669Z,100509.16
2023-06-13T14:45:54.867Z,100508.80
2023-06-13T14:51:00.212Z,100500.59
2023-06-13T14:56:05.779Z,100498.15
2023-06-13T15:01:10.256Z,100499.26
2023-06-13T15:06:14.105Z,100496.77
2023-06-13T15:11:17.306Z,100491.71
2023-06-13T15:16:20.782Z,100495.36
2023-06-13T15:21:24.532Z,100484.73
2023-06-13T15:26:27.933Z,100486.83
2023-06-13T15:31:31.272Z,100486.36
2023-06-13T15:36:34.512Z,100487.56
2023-06-13T15:41:38.156Z,100483.95
2023-06-13T15:46:46.448Z,100478.67
2023-06-13T15:51:49.816Z,100477.23
2023-06-13T15:56:53.276Z,100481.13
2023-06-13T16:01:57.010Z,100483.20
2023-06-13T16:07:00.533Z,100487.34
2023-06-13T16:12:04.010Z,100495.48
2023-06-13T16:17:07.377Z,100499.27
2023-06-13T16:22:10.842Z,100504.35
2023-06-13T16:27:14.335Z,100510.84
2023-06-13T16:32:18.449Z,100514.21
2023-06-13T16:37:26.541Z,100524.20
2023-06-13T16:42:30.141Z,100530.48
2023-06-13T16:47:33.888Z,100536.46
2023-06-13T16:52:37.727Z,100544.64
2023-06-13T16:57:41.497Z,100550.73
2023-06-13T17:02:45.535Z,100555.49
2023-06-13T17:07:54.645Z,100557.30
2023-06-13T17:12:58.401Z,100552.10
2023-06-13T17:18:12.693Z,100549.80
2023-06-13T17:23:16.548Z,100559.27
2023-06-13T17:28:20.721Z,100553.40
2023-06-13T17:33:29.321Z,100555.64
2023-06-13T17:38:41.712Z,100560.82
2023-06-13T17:43:45.621Z,100566.13
2023-06-13T17:48:49.455Z,100562.47
2023-06-13T17:53:54.287Z,100562.83
2023-06-13T17:59:01.692Z,100560.41
2023-06-13T18:04:05.576Z,100558.41
2023-06-13T18:09:10.012Z,100556.52
2023-06-13T18:14:13.791Z,100558.86
2023-06-13T18:19:17.738Z,100555.30
2023-06-13T18:24:23.984Z,100561.52
2023-06-13T18:29:28.154Z,100555.14
2023-06-13T18:34:32.158Z,100549.81
2023-06-13T18:39:36.327Z,100551.04
2023-06-13T18:44:42.184Z,100548.13
2023-06-13T18:49:46.316Z,100551.02
2023-06-13T18:54:55.662Z,100551.02
2023-06-13T18:59:59.703Z,100555.52
2023-06-13T19:05:07.040Z,100550.30
2023-06-13T19:10:11.789Z,100550.20
2023-06-13T19:15:17.056Z,100552.89
2023-06-13T19:20:25.268Z,100558.61
2023-06-13T19:25:41.237Z,100559.77
2023-06-13T19:31:25.150Z,100559.42
2023-06-13T19:36:45.968Z,100553.38
2023-06-13T19:41:50.305Z,100554.36
2023-06-13T19:46:57.419Z,100556.77
2023-06-13T19:52:02.010Z,100559.52
2023-06-13T19:57:21.941Z,100560.56
2023-06-13T20:02:32.861Z,100561.80
2023-06-13T20:07:45.306Z,100560.64
2023-06-13T20:12:49.504Z,100553.66
2023-06-13T20:17:53.667Z,100553.86
2023-06-13T20:22:57.780Z,100548.49
2023-06-13T20:28:02.312Z,100554.08
2023-06-13T20:33:06.301Z,100552.71
2023-06-13T20:38:10.420Z,100554.64
2023-06-13T20:43:17.444Z,100558.23
2023-06-13T20:48:26.657Z,100561.87
2023-06-13T20:53:33.747Z,100560.04
2023-06-13T20:58:37.935Z,100561.02
2023-06-13T21:03:49.163Z,100564.05
2023-06-13T21:08:57.352Z,100564.16
2023-06-13T21:14:03.996Z,100566.20
2023-06-13T21:19:12.206Z,100567.79
2023-06-13T21:24:16.030Z,100574.18
2023-06-13T21:29:20.075Z,100579.41
2023-06-13T21:34:23.721Z,100580.65
2023-06-13T21:39:32.543Z,100578.90
2023-06-13T21:44:36.000Z,100580.79
2023-06-13T21:49:45.664Z,100582.16
2023-06-13T21:54:49.037Z,100581.18
2023-06-13T21:59:55.760Z,100581.25
2023-06-13T22:04:59.050Z,100579.92
2023-06-13T22:10:09.272Z,100573.58
2023-06-13T22:15:24.777Z,100562.44
2023-06-13T22:20:28.975Z,100559.36
2023-06-13T22:25:35.153Z,100547.35
2023-06-13T22:30:38.690Z,100548.51
2023-06-13T22:35:42.247Z,100543.10
2023-06-13T22:40:47.855Z,100538.90
2023-06-13T22:45:51.077Z,100544.47
2023-06-13T22:50:54.346Z,100536.20
2023-06-13T22:56:00.828Z,100533.81
2023-06-13T23:01:04.400Z,100532.25
2023-06-13T23:06:13.014Z,100533.96
2023-06-13T23:11:16.393Z,100529.91
2023-06-13T23:16:23.705Z,100527.17
2023-06-13T23:21:28.804Z,100521.25
2023-06-13T23:26:32.816Z,100520.07
2023-06-13T23:31:41.722Z,100522.92
2023-06-13T23:36:45.905Z,100525.38
2023-06-13T23:41:49.487Z,100525.91
2023-06-13T23:46:53.145Z,100526.39
2023-06-13T23:52:06.289Z,100524.27
2023-06-13T23:57:09.651Z,100519.06
